Alyeska Resort
Max's Hourly Weather Roundup
ALYESKA_MAX 5/23/2015
Click Here for Graph

        DATE  TIME   Air  Wind  Wind  Wind  BATT   Rel
                    Temp   Spd   Dir  Gust  Volt  Hum%
                      F   MPH   AVG   MPH   AVG   AVG

   5/23/2015 06:00    46     8    85    21 12.87    61
   5/23/2015 05:00    47     8    81    18 12.86    55
   5/23/2015 04:00    48     7    95    20 12.87    49
   5/23/2015 03:00    49     8    80    24 12.89    46
   5/23/2015 02:00    49    10    53    21 12.91    46
   5/23/2015 01:00    50     9    67    22 12.93    42
   5/22/2015 24:00    50     9    76    21 12.96    42
   5/22/2015 23:00    51     8    65    16 13.03    41
   5/22/2015 22:00    53     9   102    21 13.47    35
   5/22/2015 21:00    57     9    98    21 13.91    31
   5/22/2015 20:00    56    11   118    21 13.92    30
   5/22/2015 19:00    56     9    96    21 13.90    32
   5/22/2015 18:00    60     8   102    16 13.86    29
   5/22/2015 17:00    60     7   110    13 13.86    32
   5/22/2015 16:00    58     8   129    16 13.86    40
   5/22/2015 15:00    56     9   155    16 13.83    54
   5/22/2015 14:00    54     5   177    11 13.82    63
   5/22/2015 13:00    54     4   160    13 13.84    58
   5/22/2015 12:00    54     2   170     5 13.84    52
   5/22/2015 11:00    52     1   208     4 13.84    49
   5/22/2015 10:00    50     2   178     4 13.76    57
   5/22/2015 09:00    47     2   189     5 13.69    65
   5/22/2015 08:00    47     2   202     4 13.67    67
   5/22/2015 07:00    47     1    67     4 13.19    66


Click Here for Graph